createdAt,value
2019-05-07T00:02:02.777Z,5.93
2019-05-07T00:04:33.189Z,4.77
2019-05-07T00:07:02.598Z,3.77
2019-05-07T00:09:32.309Z,5.27
2019-05-07T00:12:04.711Z,6.60
2019-05-07T00:14:32.049Z,6.80
2019-05-07T00:17:02.812Z,5.47
2019-05-07T00:19:32.623Z,4.67
2019-05-07T00:22:02.349Z,4.57
2019-05-07T00:24:33.123Z,5.23
2019-05-07T00:27:02.909Z,3.90
2019-05-07T00:29:32.455Z,6.23
2019-05-07T00:32:02.985Z,4.93
2019-05-07T00:34:37.790Z,3.93
2019-05-07T00:37:22.267Z,5.20
2019-05-07T00:40:10.062Z,6.83
2019-05-07T00:42:57.770Z,4.93
2019-05-07T00:45:48.819Z,3.50
2019-05-07T00:48:17.754Z,4.00
2019-05-07T00:50:48.154Z,4.27
2019-05-07T00:53:16.944Z,6.40
2019-05-07T00:55:45.747Z,5.90
2019-05-07T00:58:14.948Z,7.40
2019-05-07T01:00:43.589Z,6.07
2019-05-07T01:03:12.799Z,7.40
2019-05-07T01:05:43.276Z,6.20
2019-05-07T01:08:13.235Z,4.93
2019-05-07T01:10:42.133Z,6.63
2019-05-07T01:13:12.581Z,8.40
2019-05-07T01:15:43.035Z,3.53
2019-05-07T01:18:12.477Z,9.07
2019-05-07T01:20:42.369Z,4.10
2019-05-07T01:23:13.193Z,5.97
2019-05-07T01:25:42.993Z,5.50
2019-05-07T01:28:13.227Z,5.33
2019-05-07T01:30:43.174Z,6.13
2019-05-07T01:33:26.535Z,7.17
2019-05-07T01:36:22.474Z,4.07
2019-05-07T01:38:52.223Z,3.87
2019-05-07T01:41:23.008Z,5.20
2019-05-07T01:43:52.349Z,6.43
2019-05-07T01:46:24.541Z,6.00
2019-05-07T01:48:54.614Z,7.00
2019-05-07T01:51:22.478Z,7.23
2019-05-07T01:53:52.443Z,7.77
2019-05-07T01:56:22.980Z,6.03
2019-05-07T01:58:52.778Z,8.03
2019-05-07T02:01:22.192Z,6.70
2019-05-07T02:03:57.106Z,4.50
2019-05-07T02:06:34.118Z,4.07
2019-05-07T02:09:28.442Z,5.07
2019-05-07T02:12:15.171Z,7.03
2019-05-07T02:14:44.393Z,5.10
2019-05-07T02:17:13.729Z,7.27
2019-05-07T02:19:42.679Z,6.47
2019-05-07T02:22:13.278Z,7.20
2019-05-07T02:24:43.442Z,4.63
2019-05-07T02:27:12.599Z,4.23
2019-05-07T02:29:43.072Z,6.80
2019-05-07T02:32:13.355Z,4.80
2019-05-07T02:34:44.272Z,8.10
2019-05-07T02:37:15.887Z,7.13
2019-05-07T02:39:58.055Z,4.97
2019-05-07T02:42:26.741Z,6.60
2019-05-07T02:45:13.540Z,6.50
2019-05-07T02:47:43.728Z,6.07
2019-05-07T02:50:22.700Z,6.13
2019-05-07T02:53:03.900Z,5.43
2019-05-07T02:55:52.669Z,9.17
2019-05-07T02:58:23.674Z,5.27
2019-05-07T03:00:53.166Z,6.47
2019-05-07T03:03:24.323Z,9.83
2019-05-07T03:05:53.698Z,7.03
2019-05-07T03:08:26.536Z,11.10
2019-05-07T03:10:53.298Z,7.33
2019-05-07T03:13:23.527Z,8.20
2019-05-07T03:15:54.098Z,10.53
2019-05-07T03:18:23.369Z,12.53
2019-05-07T03:20:59.728Z,12.80
2019-05-07T03:23:34.780Z,7.93
2019-05-07T03:26:13.381Z,7.47
2019-05-07T03:29:09.195Z,9.43
2019-05-07T03:31:57.253Z,9.30
2019-05-07T03:34:46.243Z,7.93
2019-05-07T03:37:13.584Z,9.73
2019-05-07T03:39:43.469Z,6.37
2019-05-07T03:42:13.238Z,9.87
2019-05-07T03:44:53.940Z,10.17
2019-05-07T03:47:27.645Z,10.60
2019-05-07T03:49:56.778Z,11.77
2019-05-07T03:52:25.807Z,10.13
2019-05-07T03:54:54.937Z,8.93
2019-05-07T03:57:24.161Z,8.47
2019-05-07T03:59:53.494Z,9.60
2019-05-07T04:02:23.893Z,8.67
2019-05-07T04:04:53.102Z,8.33
2019-05-07T04:07:23.351Z,11.03
2019-05-07T04:09:53.466Z,9.70
2019-05-07T04:12:23.780Z,12.80
2019-05-07T04:14:53.530Z,6.07
2019-05-07T04:17:26.703Z,7.33
2019-05-07T04:19:53.382Z,9.77
2019-05-07T04:22:26.417Z,9.50
2019-05-07T04:25:24.479Z,9.47
2019-05-07T04:28:03.994Z,7.10
2019-05-07T04:30:33.639Z,7.47
2019-05-07T04:33:04.174Z,9.17
2019-05-07T04:35:53.754Z,10.33
2019-05-07T04:38:23.819Z,5.33
2019-05-07T04:40:53.771Z,9.20
2019-05-07T04:43:23.410Z,8.37
2019-05-07T04:45:53.685Z,7.37
2019-05-07T04:48:23.352Z,6.30
2019-05-07T04:50:54.415Z,5.97
2019-05-07T04:53:23.869Z,8.03
2019-05-07T04:55:53.569Z,12.30
2019-05-07T04:58:23.727Z,9.13
2019-05-07T05:00:53.772Z,7.50
2019-05-07T05:03:25.003Z,7.20
2019-05-07T05:05:54.074Z,9.60
2019-05-07T05:08:23.646Z,7.77
2019-05-07T05:10:53.654Z,7.47
2019-05-07T05:13:23.629Z,7.70
2019-05-07T05:15:52.993Z,7.53
2019-05-07T05:18:22.168Z,7.57
2019-05-07T05:21:22.789Z,8.37
2019-05-07T05:24:02.177Z,7.80
2019-05-07T05:26:32.487Z,11.33
2019-05-07T05:29:02.397Z,9.50
2019-05-07T05:31:33.127Z,6.57
2019-05-07T05:34:02.265Z,9.60
2019-05-07T05:36:32.959Z,8.80
2019-05-07T05:39:02.528Z,9.63
2019-05-07T05:41:33.989Z,9.30
2019-05-07T05:44:13.858Z,13.70
2019-05-07T05:46:42.932Z,14.23
2019-05-07T05:49:12.153Z,8.47
2019-05-07T05:51:46.874Z,8.57
2019-05-07T05:54:33.128Z,10.87
2019-05-07T05:57:36.177Z,10.40
2019-05-07T06:00:32.860Z,14.43
2019-05-07T06:03:23.291Z,16.40
2019-05-07T06:06:09.921Z,14.63
2019-05-07T06:08:47.262Z,9.30
2019-05-07T06:11:35.299Z,10.43
2019-05-07T06:14:33.064Z,10.37
2019-05-07T06:17:22.389Z,10.17
2019-05-07T06:20:22.769Z,16.33
2019-05-07T06:23:09.139Z,11.80
2019-05-07T06:25:39.029Z,12.73
2019-05-07T06:28:08.180Z,13.53
2019-05-07T06:30:36.914Z,11.17
2019-05-07T06:33:05.942Z,14.37
2019-05-07T06:35:34.839Z,9.43
2019-05-07T06:38:04.917Z,15.20
2019-05-07T06:40:52.794Z,12.97
2019-05-07T06:43:35.581Z,13.43
2019-05-07T06:46:04.775Z,15.40
2019-05-07T06:48:42.034Z,12.90
2019-05-07T06:51:04.050Z,12.77
2019-05-07T06:53:33.811Z,14.63
2019-05-07T06:56:03.260Z,13.63
2019-05-07T06:58:47.066Z,11.37
2019-05-07T07:01:42.349Z,10.93
2019-05-07T07:04:22.496Z,12.50
2019-05-07T07:07:26.621Z,15.40
2019-05-07T07:09:54.950Z,11.87
2019-05-07T07:12:26.193Z,16.17
2019-05-07T07:14:57.946Z,13.20
2019-05-07T07:17:25.582Z,12.03
2019-05-07T07:19:54.323Z,16.07
2019-05-07T07:22:23.071Z,14.77
2019-05-07T07:24:53.124Z,12.63
2019-05-07T07:27:22.725Z,12.83
2019-05-07T07:29:57.651Z,12.50
2019-05-07T07:32:32.787Z,13.30
2019-05-07T07:35:02.450Z,13.83
2019-05-07T07:37:38.576Z,9.57
2019-05-07T07:40:22.460Z,11.03
2019-05-07T07:42:52.031Z,10.83
2019-05-07T07:45:23.048Z,13.13
2019-05-07T07:47:53.083Z,15.33
2019-05-07T07:50:22.503Z,11.93
2019-05-07T07:52:53.015Z,12.63
2019-05-07T07:55:28.030Z,14.90
2019-05-07T07:58:04.551Z,11.87
2019-05-07T08:00:52.613Z,10.87
2019-05-07T08:03:22.563Z,11.00
2019-05-07T08:05:51.884Z,9.20
2019-05-07T08:08:21.986Z,8.47
2019-05-07T08:10:52.000Z,12.73
2019-05-07T08:13:22.905Z,9.60
2019-05-07T08:15:51.949Z,8.90
2019-05-07T08:18:22.228Z,9.00
2019-05-07T08:20:51.960Z,8.47
2019-05-07T08:23:22.661Z,19.00
2019-05-07T08:25:52.520Z,8.30
2019-05-07T08:28:23.147Z,11.97
2019-05-07T08:31:02.959Z,10.90
2019-05-07T08:33:35.810Z,15.00
2019-05-07T08:36:15.915Z,10.97
2019-05-07T08:38:53.137Z,11.00
2019-05-07T08:41:23.391Z,9.53
2019-05-07T08:44:08.286Z,7.80
2019-05-07T08:47:03.809Z,9.10
2019-05-07T08:49:38.875Z,11.53
2019-05-07T08:52:03.819Z,7.40
2019-05-07T08:54:33.203Z,11.50
2019-05-07T08:57:02.671Z,6.80
2019-05-07T08:59:32.555Z,10.83
2019-05-07T09:02:02.948Z,10.83
2019-05-07T09:04:33.023Z,10.77
2019-05-07T09:07:02.743Z,9.90
2019-05-07T09:09:32.758Z,10.37
2019-05-07T09:12:03.078Z,11.27
2019-05-07T09:14:32.313Z,10.17
2019-05-07T09:17:02.453Z,8.57
2019-05-07T09:19:32.190Z,12.40
2019-05-07T09:22:02.126Z,17.97
2019-05-07T09:24:33.290Z,9.43
2019-05-07T09:27:08.223Z,9.70
2019-05-07T09:29:56.058Z,10.73
2019-05-07T09:32:32.818Z,9.50
2019-05-07T09:35:02.456Z,7.80
2019-05-07T09:37:32.567Z,7.50
2019-05-07T09:40:02.789Z,6.73
2019-05-07T09:42:33.312Z,9.63
2019-05-07T09:45:02.451Z,7.57
2019-05-07T09:47:32.579Z,10.17
2019-05-07T09:50:07.087Z,6.40
2019-05-07T09:52:32.451Z,11.23
2019-05-07T09:55:11.044Z,7.03
2019-05-07T09:57:34.521Z,8.07
2019-05-07T10:00:02.405Z,7.10
2019-05-07T10:02:32.076Z,6.53
2019-05-07T10:05:02.350Z,4.33
2019-05-07T10:07:32.457Z,6.47
2019-05-07T10:10:03.190Z,5.47
2019-05-07T10:12:41.977Z,6.93
2019-05-07T10:15:12.304Z,7.67
2019-05-07T10:17:51.325Z,7.20
2019-05-07T10:20:22.714Z,5.17
2019-05-07T10:22:52.078Z,7.63
2019-05-07T10:25:22.424Z,6.53
2019-05-07T10:27:53.225Z,6.27
2019-05-07T10:30:22.435Z,3.83
2019-05-07T10:32:52.726Z,5.87
2019-05-07T10:35:22.905Z,6.10
2019-05-07T10:37:52.805Z,10.10
2019-05-07T10:40:22.534Z,7.10
2019-05-07T10:42:51.895Z,4.57
2019-05-07T10:45:32.320Z,9.63
2019-05-07T10:48:14.890Z,8.03
2019-05-07T10:50:45.974Z,5.53
2019-05-07T10:53:14.938Z,5.27
2019-05-07T10:55:45.547Z,5.00
2019-05-07T10:58:14.106Z,6.07
2019-05-07T11:00:43.122Z,4.80
2019-05-07T11:03:12.749Z,3.33
2019-05-07T11:05:41.984Z,9.10
2019-05-07T11:08:10.987Z,5.80
2019-05-07T11:10:41.740Z,7.87
2019-05-07T11:13:10.089Z,5.13
2019-05-07T11:15:39.383Z,4.97
2019-05-07T11:18:23.066Z,5.10
2019-05-07T11:20:53.473Z,5.43
2019-05-07T11:23:22.560Z,5.73
2019-05-07T11:25:52.692Z,5.23
2019-05-07T11:28:22.747Z,3.63
2019-05-07T11:30:51.619Z,5.80
2019-05-07T11:33:22.049Z,6.37
2019-05-07T11:35:52.654Z,7.73
2019-05-07T11:38:24.700Z,4.37
2019-05-07T11:40:51.874Z,6.20
2019-05-07T11:43:33.371Z,6.23
2019-05-07T11:46:30.027Z,3.60
2019-05-07T11:49:04.031Z,3.20
2019-05-07T11:51:54.923Z,3.03
2019-05-07T11:54:23.579Z,3.00
2019-05-07T11:56:55.383Z,3.80
2019-05-07T11:59:22.819Z,5.67
2019-05-07T12:01:56.230Z,2.90
2019-05-07T12:04:27.615Z,5.30
2019-05-07T12:06:55.410Z,7.10
2019-05-07T12:09:24.426Z,4.90
2019-05-07T12:11:53.078Z,3.70
2019-05-07T12:14:31.367Z,4.57
2019-05-07T12:16:52.511Z,2.97
2019-05-07T12:19:22.661Z,3.67
2019-05-07T12:21:52.644Z,3.10
2019-05-07T12:24:22.338Z,4.30
2019-05-07T12:26:52.235Z,4.37
2019-05-07T12:29:22.092Z,4.53
2019-05-07T12:32:18.672Z,4.83
2019-05-07T12:34:55.544Z,3.90
2019-05-07T12:37:24.291Z,3.40
2019-05-07T12:39:53.111Z,2.40
2019-05-07T12:42:22.347Z,4.87
2019-05-07T12:44:51.820Z,4.13
2019-05-07T12:47:22.462Z,7.27
2019-05-07T12:49:51.376Z,3.17
2019-05-07T12:52:26.950Z,6.67
2019-05-07T12:55:06.820Z,6.73
2019-05-07T12:57:35.566Z,2.40
2019-05-07T13:00:22.962Z,2.90
2019-05-07T13:03:09.792Z,3.77
2019-05-07T13:05:38.647Z,4.03
2019-05-07T13:08:07.570Z,2.13
2019-05-07T13:10:36.592Z,3.27
2019-05-07T13:13:05.621Z,5.40
2019-05-07T13:15:34.419Z,3.57
2019-05-07T13:18:03.206Z,6.63
2019-05-07T13:20:32.131Z,4.33
2019-05-07T13:23:00.871Z,2.33
2019-05-07T13:25:29.806Z,5.10
2019-05-07T13:27:58.530Z,5.47
2019-05-07T13:30:27.744Z,5.13
2019-05-07T13:32:57.518Z,1.80
2019-05-07T13:35:26.949Z,2.20
2019-05-07T13:38:14.582Z,6.20
2019-05-07T13:41:02.163Z,1.93
2019-05-07T13:43:35.952Z,4.33
2019-05-07T13:46:12.066Z,1.27
2019-05-07T13:48:44.078Z,2.47
2019-05-07T13:51:12.499Z,1.33
2019-05-07T13:53:42.802Z,1.03
2019-05-07T13:56:13.287Z,1.00
2019-05-07T13:58:42.824Z,3.27
2019-05-07T14:01:36.906Z,4.00
2019-05-07T14:04:05.647Z,2.57
2019-05-07T14:06:42.698Z,1.10
2019-05-07T14:09:16.254Z,2.60
2019-05-07T14:11:45.313Z,1.70
2019-05-07T14:14:14.064Z,3.07
2019-05-07T14:16:45.089Z,3.03
2019-05-07T14:19:13.676Z,1.97
2019-05-07T14:21:42.711Z,1.33
2019-05-07T14:24:14.600Z,2.30
2019-05-07T14:26:42.234Z,1.33
2019-05-07T14:29:11.193Z,0.83
2019-05-07T14:31:39.822Z,3.80
2019-05-07T14:34:17.783Z,1.30
2019-05-07T14:37:04.694Z,1.87
2019-05-07T14:39:33.450Z,1.57
2019-05-07T14:42:04.537Z,2.47
2019-05-07T14:44:49.763Z,1.70
2019-05-07T14:47:22.066Z,5.03
2019-05-07T14:49:52.683Z,1.40
2019-05-07T14:52:30.308Z,4.30
2019-05-07T14:54:51.227Z,1.73
2019-05-07T14:57:21.971Z,1.23
2019-05-07T14:59:52.383Z,5.07
2019-05-07T15:02:23.464Z,3.80
2019-05-07T15:04:52.533Z,1.50
2019-05-07T15:07:22.647Z,2.17
2019-05-07T15:09:51.882Z,2.13
2019-05-07T15:12:23.070Z,2.70
2019-05-07T15:14:52.800Z,1.77
2019-05-07T15:17:37.358Z,1.40
2019-05-07T15:20:06.853Z,1.40
2019-05-07T15:22:49.603Z,1.67
2019-05-07T15:25:15.733Z,1.50
2019-05-07T15:27:46.080Z,1.03
2019-05-07T15:30:15.334Z,1.10
2019-05-07T15:32:44.603Z,2.37
2019-05-07T15:35:13.643Z,1.00
2019-05-07T15:37:42.835Z,1.80
2019-05-07T15:40:11.823Z,1.03
2019-05-07T15:42:42.166Z,1.70
2019-05-07T15:45:12.516Z,1.90
2019-05-07T15:47:45.381Z,3.13
2019-05-07T15:50:14.411Z,0.90
2019-05-07T15:52:58.250Z,3.37
2019-05-07T15:55:22.564Z,1.10
2019-05-07T15:57:52.269Z,1.67
2019-05-07T16:00:23.412Z,2.40
2019-05-07T16:02:56.559Z,2.07
2019-05-07T16:05:25.217Z,1.27
2019-05-07T16:07:54.185Z,1.17
2019-05-07T16:10:23.425Z,1.10
2019-05-07T16:12:53.080Z,1.30
2019-05-07T16:15:22.475Z,1.50
2019-05-07T16:17:56.746Z,1.90
2019-05-07T16:20:26.053Z,5.37
2019-05-07T16:23:11.367Z,1.87
2019-05-07T16:25:28.720Z,3.27
2019-05-07T16:27:57.530Z,1.20
2019-05-07T16:30:26.701Z,3.70
2019-05-07T16:32:56.043Z,1.37
2019-05-07T16:35:25.146Z,1.20
2019-05-07T16:37:53.802Z,4.77
2019-05-07T16:40:23.062Z,1.50
2019-05-07T16:42:52.525Z,1.87
2019-05-07T16:45:21.581Z,1.73
2019-05-07T16:47:52.147Z,3.90
2019-05-07T16:50:22.359Z,1.30
2019-05-07T16:52:52.410Z,1.10
2019-05-07T16:55:23.288Z,5.30
2019-05-07T16:58:06.163Z,3.03
2019-05-07T17:00:38.988Z,1.50
2019-05-07T17:03:11.710Z,2.10
2019-05-07T17:05:42.787Z,1.10
2019-05-07T17:08:42.898Z,1.23
2019-05-07T17:11:12.099Z,2.37
2019-05-07T17:13:42.428Z,1.50
2019-05-07T17:16:12.360Z,1.33
2019-05-07T17:18:41.179Z,1.43
2019-05-07T17:21:12.203Z,7.07
2019-05-07T17:23:44.492Z,4.97
2019-05-07T17:26:11.729Z,4.87
2019-05-07T17:28:42.547Z,3.87
2019-05-07T17:31:12.374Z,2.63
2019-05-07T17:33:42.468Z,1.93
2019-05-07T17:36:12.209Z,2.47
2019-05-07T17:38:42.821Z,4.77
2019-05-07T17:41:19.936Z,3.63
2019-05-07T17:43:42.363Z,2.13
2019-05-07T17:46:12.249Z,2.00
2019-05-07T17:48:42.840Z,2.80
2019-05-07T17:51:33.558Z,3.17
2019-05-07T17:54:02.257Z,1.73
2019-05-07T17:56:32.014Z,2.73
2019-05-07T17:59:02.770Z,6.80
2019-05-07T18:01:56.542Z,4.57
2019-05-07T18:04:25.458Z,1.80
2019-05-07T18:06:54.474Z,2.57
2019-05-07T18:09:23.505Z,4.17
2019-05-07T18:11:52.460Z,2.53
2019-05-07T18:14:22.844Z,2.30
2019-05-07T18:17:16.742Z,2.80
2019-05-07T18:19:48.288Z,3.93
2019-05-07T18:22:17.358Z,4.60
2019-05-07T18:24:46.553Z,2.13
2019-05-07T18:27:24.217Z,2.43
2019-05-07T18:29:53.038Z,2.63
2019-05-07T18:32:22.056Z,9.40
2019-05-07T18:34:51.962Z,2.60
2019-05-07T18:37:22.920Z,3.57
2019-05-07T18:39:52.201Z,2.93
2019-05-07T18:42:22.224Z,2.60
2019-05-07T18:44:52.483Z,3.17
2019-05-07T18:47:22.375Z,3.83
2019-05-07T18:49:51.882Z,2.63
2019-05-07T18:52:22.811Z,6.23
2019-05-07T18:54:52.068Z,3.07
2019-05-07T18:57:22.201Z,4.77
2019-05-07T18:59:53.048Z,2.00
2019-05-07T19:02:22.582Z,3.47
2019-05-07T19:04:51.933Z,5.40
2019-05-07T19:07:23.093Z,6.10
2019-05-07T19:09:51.695Z,4.67
2019-05-07T19:12:23.270Z,2.43
2019-05-07T19:14:51.984Z,2.97
2019-05-07T19:17:21.864Z,2.43
2019-05-07T19:19:52.529Z,2.73
2019-05-07T19:22:22.224Z,3.67
2019-05-07T19:24:52.719Z,5.40
2019-05-07T19:27:22.101Z,2.43
2019-05-07T19:29:50.880Z,5.33
2019-05-07T19:32:20.067Z,1.60
2019-05-07T19:34:49.101Z,4.30
2019-05-07T19:37:17.746Z,2.20
2019-05-07T19:39:46.766Z,2.00
2019-05-07T19:42:15.449Z,2.27
2019-05-07T19:44:44.050Z,2.80
2019-05-07T19:47:12.827Z,2.60
2019-05-07T19:49:41.881Z,4.97
2019-05-07T19:52:12.445Z,10.27
2019-05-07T19:54:44.344Z,3.63
2019-05-07T19:57:13.870Z,5.40
2019-05-07T19:59:42.953Z,2.93
2019-05-07T20:02:13.854Z,3.73
2019-05-07T20:04:42.776Z,2.77
2019-05-07T20:07:12.213Z,3.00
2019-05-07T20:09:42.862Z,5.27
2019-05-07T20:12:11.541Z,3.43
2019-05-07T20:14:42.155Z,8.67
2019-05-07T20:17:12.291Z,6.70
2019-05-07T20:19:41.897Z,5.27
2019-05-07T20:22:12.775Z,9.27
2019-05-07T20:24:41.859Z,4.60
2019-05-07T20:27:12.466Z,4.67
2019-05-07T20:29:42.746Z,5.03
2019-05-07T20:32:11.981Z,3.53
2019-05-07T20:34:42.297Z,3.87
2019-05-07T20:37:12.890Z,3.13
2019-05-07T20:39:42.728Z,6.73
2019-05-07T20:42:12.463Z,3.57
2019-05-07T20:44:42.642Z,3.63
2019-05-07T20:47:12.681Z,2.43
2019-05-07T20:49:42.787Z,4.83
2019-05-07T20:52:11.474Z,3.80
2019-05-07T20:55:12.852Z,5.03
2019-05-07T20:57:43.259Z,3.03
2019-05-07T21:00:20.004Z,3.60
2019-05-07T21:02:52.503Z,4.07
2019-05-07T21:05:22.768Z,5.47
2019-05-07T21:07:52.496Z,3.90
2019-05-07T21:10:22.167Z,2.60
2019-05-07T21:12:51.771Z,4.30
2019-05-07T21:15:22.654Z,3.80
2019-05-07T21:17:52.637Z,4.23
2019-05-07T21:20:22.850Z,5.73
2019-05-07T21:22:52.008Z,2.53
2019-05-07T21:25:22.703Z,3.37
2019-05-07T21:27:53.144Z,2.33
2019-05-07T21:30:22.514Z,3.77
2019-05-07T21:32:51.768Z,2.00
2019-05-07T21:35:22.370Z,5.53
2019-05-07T21:37:52.377Z,4.43
2019-05-07T21:40:22.437Z,2.53
2019-05-07T21:42:52.050Z,1.67
2019-05-07T21:45:23.603Z,4.23
2019-05-07T21:47:52.051Z,1.70
2019-05-07T21:50:22.137Z,1.17
2019-05-07T21:52:56.108Z,3.30
2019-05-07T21:55:34.126Z,4.50
2019-05-07T21:58:25.095Z,3.43
2019-05-07T22:01:13.269Z,2.30
2019-05-07T22:03:45.642Z,2.70
2019-05-07T22:06:14.571Z,5.87
2019-05-07T22:08:43.636Z,3.40
2019-05-07T22:11:12.596Z,2.83
2019-05-07T22:13:43.464Z,6.33
2019-05-07T22:16:12.978Z,1.60
2019-05-07T22:18:42.668Z,2.70
2019-05-07T22:21:12.401Z,2.53
2019-05-07T22:23:42.893Z,3.10
2019-05-07T22:26:20.245Z,2.37
2019-05-07T22:28:42.775Z,1.70
2019-05-07T22:31:30.623Z,2.50
2019-05-07T22:34:27.503Z,2.67
2019-05-07T22:36:56.634Z,2.50
2019-05-07T22:39:25.854Z,3.83
2019-05-07T22:41:54.595Z,2.20
2019-05-07T22:44:26.094Z,4.40
2019-05-07T22:46:54.126Z,2.37
2019-05-07T22:49:23.092Z,4.90
2019-05-07T22:51:52.570Z,4.67
2019-05-07T22:54:22.751Z,3.30
2019-05-07T22:57:03.146Z,3.27
2019-05-07T22:59:32.796Z,1.63
2019-05-07T23:02:03.139Z,3.43
2019-05-07T23:04:32.644Z,3.37
2019-05-07T23:07:02.316Z,3.67
2019-05-07T23:09:31.351Z,1.53
2019-05-07T23:12:02.135Z,8.07
2019-05-07T23:14:30.375Z,3.43
2019-05-07T23:16:59.295Z,5.60
2019-05-07T23:19:28.034Z,6.00
2019-05-07T23:21:57.249Z,4.30
2019-05-07T23:24:25.894Z,5.67
2019-05-07T23:26:54.552Z,3.90
2019-05-07T23:29:23.186Z,3.10
2019-05-07T23:31:52.833Z,3.00
2019-05-07T23:34:22.699Z,8.90
2019-05-07T23:36:53.455Z,2.50
2019-05-07T23:39:24.392Z,4.70
2019-05-07T23:42:02.264Z,3.93
2019-05-07T23:44:31.602Z,2.47
2019-05-07T23:47:02.611Z,2.83
2019-05-07T23:49:32.256Z,8.40
2019-05-07T23:52:02.429Z,4.47
2019-05-07T23:54:32.018Z,5.70
2019-05-07T23:57:06.993Z,5.37
2019-05-07T23:59:32.892Z,9.03
